sensor_id;sensor_type;location;lat;lon;timestamp;pressure;altitude;pressure_sealevel;temperature;humidity
72414;BME280;60995;52.154;4.498;2023-02-28T00:00:12;103196.22;;;4.71;74.07
72414;BME280;60995;52.154;4.498;2023-02-28T00:02:29;103196.88;;;4.81;73.99
72414;BME280;60995;52.154;4.498;2023-02-28T00:04:46;103192.38;;;4.82;73.70
72414;BME280;60995;52.154;4.498;2023-02-28T00:07:09;103194.69;;;4.95;72.81
72414;BME280;60995;52.154;4.498;2023-02-28T00:09:25;103193.94;;;4.89;73.06
72414;BME280;60995;52.154;4.498;2023-02-28T00:11:42;103205.63;;;4.89;73.39
72414;BME280;60995;52.154;4.498;2023-02-28T00:13:58;103206.97;;;5.04;72.97
72414;BME280;60995;52.154;4.498;2023-02-28T00:16:18;103208.03;;;4.99;72.04
72414;BME280;60995;52.154;4.498;2023-02-28T00:18:37;103208.66;;;5.08;72.33
72414;BME280;60995;52.154;4.498;2023-02-28T00:20:54;103206.94;;;5.06;73.05
72414;BME280;60995;52.154;4.498;2023-02-28T00:23:10;103201.53;;;5.07;72.55
72414;BME280;60995;52.154;4.498;2023-02-28T00:25:31;103203.19;;;5.11;72.40
72414;BME280;60995;52.154;4.498;2023-02-28T00:27:50;103202.19;;;5.16;72.46
72414;BME280;60995;52.154;4.498;2023-02-28T00:30:09;103201.47;;;5.09;72.34
72414;BME280;60995;52.154;4.498;2023-02-28T00:32:27;103203.78;;;5.23;72.49
72414;BME280;60995;52.154;4.498;2023-02-28T00:34:44;103202.09;;;5.19;71.69
72414;BME280;60995;52.154;4.498;2023-02-28T00:37:00;103205.09;;;5.08;73.20
72414;BME280;60995;52.154;4.498;2023-02-28T00:39:16;103204.59;;;5.25;72.33
72414;BME280;60995;52.154;4.498;2023-02-28T00:41:33;103198.63;;;5.13;72.27
72414;BME280;60995;52.154;4.498;2023-02-28T00:43:49;103198.75;;;5.10;73.08
72414;BME280;60995;52.154;4.498;2023-02-28T00:46:06;103196.75;;;5.17;73.23
72414;BME280;60995;52.154;4.498;2023-02-28T00:48:23;103204.06;;;5.12;72.99
72414;BME280;60995;52.154;4.498;2023-02-28T00:50:42;103193.88;;;5.23;72.11
72414;BME280;60995;52.154;4.498;2023-02-28T00:52:59;103196.47;;;5.28;72.81
72414;BME280;60995;52.154;4.498;2023-02-28T00:55:15;103189.09;;;5.33;72.38
72414;BME280;60995;52.154;4.498;2023-02-28T00:57:31;103188.84;;;5.42;73.25
72414;BME280;60995;52.154;4.498;2023-02-28T00:59:48;103190.22;;;5.26;72.77
72414;BME280;60995;52.154;4.498;2023-02-28T01:02:04;103188.75;;;5.45;72.55
72414;BME280;60995;52.154;4.498;2023-02-28T01:04:21;103190.59;;;5.43;72.58
72414;BME280;60995;52.154;4.498;2023-02-28T01:06:38;103199.78;;;5.36;73.13
72414;BME280;60995;52.154;4.498;2023-02-28T01:08:54;103191.78;;;5.35;72.58
72414;BME280;60995;52.154;4.498;2023-02-28T01:11:13;103208.84;;;5.34;73.27
72414;BME280;60995;52.154;4.498;2023-02-28T01:13:32;103201.91;;;5.25;73.49
72414;BME280;60995;52.154;4.498;2023-02-28T01:15:53;103201.56;;;5.37;73.57
72414;BME280;60995;52.154;4.498;2023-02-28T01:18:11;103207.94;;;5.33;73.39
72414;BME280;60995;52.154;4.498;2023-02-28T01:20:28;103196.34;;;5.31;73.13
72414;BME280;60995;52.154;4.498;2023-02-28T01:22:44;103202.56;;;5.33;73.84
72414;BME280;60995;52.154;4.498;2023-02-28T01:25:01;103195.38;;;5.34;73.55
72414;BME280;60995;52.154;4.498;2023-02-28T01:27:17;103196.81;;;5.45;73.47
72414;BME280;60995;52.154;4.498;2023-02-28T01:29:33;103202.25;;;5.44;72.97
72414;BME280;60995;52.154;4.498;2023-02-28T01:31:49;103196.78;;;5.47;73.06
72414;BME280;60995;52.154;4.498;2023-02-28T01:34:06;103193.56;;;5.34;74.04
72414;BME280;60995;52.154;4.498;2023-02-28T01:36:23;103188.56;;;5.22;73.53
72414;BME280;60995;52.154;4.498;2023-02-28T01:38:41;103188.56;;;5.52;73.00
72414;BME280;60995;52.154;4.498;2023-02-28T01:40:57;103186.69;;;5.54;72.82
72414;BME280;60995;52.154;4.498;2023-02-28T01:45:42;103184.28;;;5.74;72.24
72414;BME280;60995;52.154;4.498;2023-02-28T01:48:02;103184.16;;;5.77;72.39
72414;BME280;60995;52.154;4.498;2023-02-28T01:50:26;103178.78;;;5.77;72.48
72414;BME280;60995;52.154;4.498;2023-02-28T01:52:47;103181.63;;;5.73;72.87
72414;BME280;60995;52.154;4.498;2023-02-28T01:55:06;103175.22;;;5.47;73.02
72414;BME280;60995;52.154;4.498;2023-02-28T01:57:34;103183.53;;;5.39;73.84
72414;BME280;60995;52.154;4.498;2023-02-28T02:00:00;103162.78;;;5.43;73.55
72414;BME280;60995;52.154;4.498;2023-02-28T02:02:21;103172.59;;;5.45;73.98
72414;BME280;60995;52.154;4.498;2023-02-28T02:04:43;103168.81;;;5.51;73.64
72414;BME280;60995;52.154;4.498;2023-02-28T02:07:06;103168.69;;;5.56;74.48
72414;BME280;60995;52.154;4.498;2023-02-28T02:09:24;103171.84;;;5.70;73.47
72414;BME280;60995;52.154;4.498;2023-02-28T02:11:44;103165.16;;;5.54;74.12
72414;BME280;60995;52.154;4.498;2023-02-28T02:29:12;103156.78;;;5.63;74.66
72414;BME280;60995;52.154;4.498;2023-02-28T02:37:40;103149.97;;;5.79;74.11
72414;BME280;60995;52.154;4.498;2023-02-28T02:40:07;103140.97;;;5.80;73.15
72414;BME280;60995;52.154;4.498;2023-02-28T02:43:07;103144.03;;;5.68;73.49
72414;BME280;60995;52.154;4.498;2023-02-28T02:45:54;103145.09;;;5.64;73.71
72414;BME280;60995;52.154;4.498;2023-02-28T02:48:20;103142.09;;;5.73;72.94
72414;BME280;60995;52.154;4.498;2023-02-28T02:50:48;103153.09;;;5.67;73.32
72414;BME280;60995;52.154;4.498;2023-02-28T02:53:09;103148.81;;;5.60;74.01
72414;BME280;60995;52.154;4.498;2023-02-28T02:55:29;103150.56;;;5.61;73.71
72414;BME280;60995;52.154;4.498;2023-02-28T02:58:03;103139.09;;;5.83;73.99
72414;BME280;60995;52.154;4.498;2023-02-28T03:00:28;103148.44;;;5.72;73.42
72414;BME280;60995;52.154;4.498;2023-02-28T03:02:52;103144.59;;;5.79;73.53
72414;BME280;60995;52.154;4.498;2023-02-28T03:05:25;103149.78;;;5.86;73.67
72414;BME280;60995;52.154;4.498;2023-02-28T03:07:44;103153.91;;;5.69;73.38
72414;BME280;60995;52.154;4.498;2023-02-28T03:10:01;103158.53;;;5.64;73.66
72414;BME280;60995;52.154;4.498;2023-02-28T03:12:17;103145.56;;;5.77;74.23
72414;BME280;60995;52.154;4.498;2023-02-28T03:14:56;103160.66;;;5.83;73.68
72414;BME280;60995;52.154;4.498;2023-02-28T03:17:45;103144.03;;;5.98;73.40
72414;BME280;60995;52.154;4.498;2023-02-28T03:20:17;103150.09;;;6.05;73.49
72414;BME280;60995;52.154;4.498;2023-02-28T03:23:04;103142.06;;;6.03;72.86
72414;BME280;60995;52.154;4.498;2023-02-28T03:26:16;103148.06;;;5.55;74.59
72414;BME280;60995;52.154;4.498;2023-02-28T03:31:18;103139.22;;;5.79;73.07
72414;BME280;60995;52.154;4.498;2023-02-28T03:34:00;103133.63;;;5.86;73.24
72414;BME280;60995;52.154;4.498;2023-02-28T03:36:27;103132.53;;;5.91;72.58
72414;BME280;60995;52.154;4.498;2023-02-28T03:38:54;103131.97;;;5.82;72.78
72414;BME280;60995;52.154;4.498;2023-02-28T03:41:24;103141.06;;;5.77;73.78
72414;BME280;60995;52.154;4.498;2023-02-28T03:43:53;103127.06;;;5.66;74.34
72414;BME280;60995;52.154;4.498;2023-02-28T03:46:16;103132.28;;;5.72;74.31
72414;BME280;60995;52.154;4.498;2023-02-28T03:48:45;103136.19;;;5.62;74.83
72414;BME280;60995;52.154;4.498;2023-02-28T03:51:10;103132.06;;;5.78;75.04
72414;BME280;60995;52.154;4.498;2023-02-28T03:53:39;103131.06;;;5.81;74.57
72414;BME280;60995;52.154;4.498;2023-02-28T03:56:34;103135.72;;;5.76;74.33
72414;BME280;60995;52.154;4.498;2023-02-28T03:58:57;103138.53;;;5.73;74.47
72414;BME280;60995;52.154;4.498;2023-02-28T04:01:28;103135.84;;;5.73;75.04
72414;BME280;60995;52.154;4.498;2023-02-28T04:03:47;103136.06;;;5.65;75.46
72414;BME280;60995;52.154;4.498;2023-02-28T04:06:23;103133.50;;;5.89;75.04
72414;BME280;60995;52.154;4.498;2023-02-28T04:08:40;103142.81;;;5.78;75.06
72414;BME280;60995;52.154;4.498;2023-02-28T04:11:01;103137.38;;;5.80;74.48
72414;BME280;60995;52.154;4.498;2023-02-28T04:13:22;103152.84;;;6.03;73.25
72414;BME280;60995;52.154;4.498;2023-02-28T04:15:39;103148.06;;;5.83;73.33
72414;BME280;60995;52.154;4.498;2023-02-28T04:17:55;103153.41;;;5.85;73.80
72414;BME280;60995;52.154;4.498;2023-02-28T04:20:11;103156.28;;;5.78;74.13
72414;BME280;60995;52.154;4.498;2023-02-28T04:22:28;103152.25;;;5.93;73.52
72414;BME280;60995;52.154;4.498;2023-02-28T04:24:44;103152.63;;;6.09;73.03
72414;BME280;60995;52.154;4.498;2023-02-28T04:27:01;103149.09;;;6.07;72.12
72414;BME280;60995;52.154;4.498;2023-02-28T04:29:31;103146.56;;;6.03;73.08
72414;BME280;60995;52.154;4.498;2023-02-28T04:31:50;103145.66;;;6.02;72.64
72414;BME280;60995;52.154;4.498;2023-02-28T04:34:09;103147.44;;;6.03;73.20
72414;BME280;60995;52.154;4.498;2023-02-28T04:36:25;103150.41;;;5.94;73.00
72414;BME280;60995;52.154;4.498;2023-02-28T04:38:41;103151.94;;;5.74;74.38
72414;BME280;60995;52.154;4.498;2023-02-28T04:40:58;103153.22;;;5.91;74.95
72414;BME280;60995;52.154;4.498;2023-02-28T04:43:16;103150.06;;;6.06;73.48
72414;BME280;60995;52.154;4.498;2023-02-28T04:45:32;103154.50;;;5.79;73.67
72414;BME280;60995;52.154;4.498;2023-02-28T04:47:49;103154.00;;;5.66;75.28
72414;BME280;60995;52.154;4.498;2023-02-28T04:50:06;103146.41;;;5.79;74.53
72414;BME280;60995;52.154;4.498;2023-02-28T04:52:23;103149.78;;;5.86;74.58
72414;BME280;60995;52.154;4.498;2023-02-28T04:54:40;103156.78;;;5.63;75.03
72414;BME280;60995;52.154;4.498;2023-02-28T04:56:56;103158.09;;;5.50;76.19
72414;BME280;60995;52.154;4.498;2023-02-28T04:59:13;103157.75;;;5.32;77.36
72414;BME280;60995;52.154;4.498;2023-02-28T05:01:33;103148.59;;;5.38;77.78
72414;BME280;60995;52.154;4.498;2023-02-28T05:03:52;103149.38;;;5.41;77.32
72414;BME280;60995;52.154;4.498;2023-02-28T05:06:10;103150.19;;;5.43;77.57
72414;BME280;60995;52.154;4.498;2023-02-28T05:08:28;103142.78;;;5.52;77.05
72414;BME280;60995;52.154;4.498;2023-02-28T05:10:46;103145.94;;;5.36;76.18
72414;BME280;60995;52.154;4.498;2023-02-28T05:13:02;103148.41;;;5.44;76.24
72414;BME280;60995;52.154;4.498;2023-02-28T05:15:18;103151.06;;;5.45;76.45
72414;BME280;60995;52.154;4.498;2023-02-28T05:17:34;103143.09;;;5.42;75.94
72414;BME280;60995;52.154;4.498;2023-02-28T05:19:51;103149.56;;;5.35;75.37
72414;BME280;60995;52.154;4.498;2023-02-28T05:22:13;103150.44;;;5.36;74.60
72414;BME280;60995;52.154;4.498;2023-02-28T05:24:32;103152.31;;;5.34;74.50
72414;BME280;60995;52.154;4.498;2023-02-28T05:26:50;103146.97;;;5.32;73.71
72414;BME280;60995;52.154;4.498;2023-02-28T05:29:09;103139.50;;;5.42;73.16
72414;BME280;60995;52.154;4.498;2023-02-28T05:31:26;103151.69;;;5.54;72.33
72414;BME280;60995;52.154;4.498;2023-02-28T05:33:42;103145.22;;;5.31;73.32
72414;BME280;60995;52.154;4.498;2023-02-28T05:35:58;103161.53;;;5.25;73.00
72414;BME280;60995;52.154;4.498;2023-02-28T05:38:14;103158.94;;;5.22;72.55
72414;BME280;60995;52.154;4.498;2023-02-28T05:40:31;103156.91;;;5.30;72.35
72414;BME280;60995;52.154;4.498;2023-02-28T05:42:47;103157.50;;;5.40;72.48
72414;BME280;60995;52.154;4.498;2023-02-28T05:45:07;103149.56;;;5.35;71.54
72414;BME280;60995;52.154;4.498;2023-02-28T05:47:24;103150.94;;;5.49;72.08
72414;BME280;60995;52.154;4.498;2023-02-28T05:49:43;103150.31;;;5.40;71.73
72414;BME280;60995;52.154;4.498;2023-02-28T05:52:02;103159.22;;;5.42;72.30
72414;BME280;60995;52.154;4.498;2023-02-28T05:54:19;103164.16;;;5.28;71.70
72414;BME280;60995;52.154;4.498;2023-02-28T05:56:35;103158.09;;;5.50;71.43
72414;BME280;60995;52.154;4.498;2023-02-28T05:58:53;103152.53;;;5.56;70.75
72414;BME280;60995;52.154;4.498;2023-02-28T06:01:42;103151.69;;;5.54;70.03
72414;BME280;60995;52.154;4.498;2023-02-28T06:04:10;103165.38;;;5.16;70.22
72414;BME280;60995;52.154;4.498;2023-02-28T06:06:27;103170.00;;;5.12;70.53
72414;BME280;60995;52.154;4.498;2023-02-28T06:08:44;103158.03;;;5.23;70.41
72414;BME280;60995;52.154;4.498;2023-02-28T06:11:04;103163.31;;;5.26;70.82
72414;BME280;60995;52.154;4.498;2023-02-28T06:13:21;103160.66;;;5.24;69.73
72414;BME280;60995;52.154;4.498;2023-02-28T06:15:38;103165.13;;;5.25;70.04
72414;BME280;60995;52.154;4.498;2023-02-28T06:17:55;103164.44;;;5.17;70.83
72414;BME280;60995;52.154;4.498;2023-02-28T06:20:12;103167.19;;;5.16;70.47
72414;BME280;60995;52.154;4.498;2023-02-28T06:22:28;103159.41;;;5.06;70.79
72414;BME280;60995;52.154;4.498;2023-02-28T06:24:45;103158.59;;;5.03;71.36
72414;BME280;60995;52.154;4.498;2023-02-28T06:27:01;103162.88;;;5.10;71.22
72414;BME280;60995;52.154;4.498;2023-02-28T06:29:20;103167.19;;;5.16;70.75
72414;BME280;60995;52.154;4.498;2023-02-28T06:31:37;103159.41;;;5.06;70.38
72414;BME280;60995;52.154;4.498;2023-02-28T06:33:54;103166.44;;;5.10;70.19
72414;BME280;60995;52.154;4.498;2023-02-28T06:36:13;103172.44;;;4.89;70.89
72414;BME280;60995;52.154;4.498;2023-02-28T06:38:31;103169.59;;;4.62;71.99
72414;BME280;60995;52.154;4.498;2023-02-28T06:40:55;103166.94;;;4.60;72.60
72414;BME280;60995;52.154;4.498;2023-02-28T06:43:12;103172.06;;;4.70;72.53
72414;BME280;60995;52.154;4.498;2023-02-28T06:45:29;103166.53;;;4.41;73.70
72414;BME280;60995;52.154;4.498;2023-02-28T06:47:46;103174.72;;;4.37;74.77
72414;BME280;60995;52.154;4.498;2023-02-28T06:50:11;103174.66;;;4.40;74.53
72414;BME280;60995;52.154;4.498;2023-02-28T06:52:28;103168.22;;;4.45;74.62
72414;BME280;60995;52.154;4.498;2023-02-28T06:54:44;103187.25;;;4.38;75.26
72414;BME280;60995;52.154;4.498;2023-02-28T06:57:01;103177.72;;;4.24;77.30
72414;BME280;60995;52.154;4.498;2023-02-28T06:59:17;103177.78;;;4.23;76.73
72414;BME280;60995;52.154;4.498;2023-02-28T07:01:33;103184.44;;;4.06;76.87
72414;BME280;60995;52.154;4.498;2023-02-28T07:03:50;103190.09;;;3.95;78.16
72414;BME280;60995;52.154;4.498;2023-02-28T07:06:08;103193.50;;;4.02;78.46
72414;BME280;60995;52.154;4.498;2023-02-28T07:08:25;103199.75;;;3.65;78.85
72414;BME280;60995;52.154;4.498;2023-02-28T07:10:42;103196.88;;;3.71;80.32
72414;BME280;60995;52.154;4.498;2023-02-28T07:12:59;103199.53;;;3.73;80.16
72414;BME280;60995;52.154;4.498;2023-02-28T07:15:16;103207.41;;;3.80;79.83
72414;BME280;60995;52.154;4.498;2023-02-28T07:17:32;103207.91;;;3.17;79.73
72414;BME280;60995;52.154;4.498;2023-02-28T07:19:48;103213.59;;;3.00;79.94
72414;BME280;60995;52.154;4.498;2023-02-28T07:22:06;103217.47;;;2.85;80.41
72414;BME280;60995;52.154;4.498;2023-02-28T07:24:23;103221.25;;;2.73;80.33
72414;BME280;60995;52.154;4.498;2023-02-28T07:26:43;103223.84;;;2.77;80.95
72414;BME280;60995;52.154;4.498;2023-02-28T07:29:00;103227.91;;;2.98;80.25
72414;BME280;60995;52.154;4.498;2023-02-28T07:31:17;103232.22;;;3.07;79.06
72414;BME280;60995;52.154;4.498;2023-02-28T07:33:34;103226.94;;;3.04;79.08
72414;BME280;60995;52.154;4.498;2023-02-28T07:35:51;103218.66;;;2.68;80.28
72414;BME280;60995;52.154;4.498;2023-02-28T07:38:07;103220.63;;;2.57;80.71
72414;BME280;60995;52.154;4.498;2023-02-28T07:40:24;103219.50;;;2.72;80.82
72414;BME280;60995;52.154;4.498;2023-02-28T07:42:41;103221.78;;;2.92;80.99
72414;BME280;60995;52.154;4.498;2023-02-28T07:44:57;103225.28;;;2.97;80.78
72414;BME280;60995;52.154;4.498;2023-02-28T07:47:14;103219.88;;;3.00;80.20
72414;BME280;60995;52.154;4.498;2023-02-28T07:49:32;103227.81;;;3.05;79.61
72414;BME280;60995;52.154;4.498;2023-02-28T07:51:48;103222.69;;;2.92;80.37
72414;BME280;60995;52.154;4.498;2023-02-28T07:54:05;103228.34;;;2.77;81.29
72414;BME280;60995;52.154;4.498;2023-02-28T07:56:21;103225.63;;;2.78;81.36
72414;BME280;60995;52.154;4.498;2023-02-28T07:58:37;103220.31;;;2.75;81.14
72414;BME280;60995;52.154;4.498;2023-02-28T08:00:54;103223.97;;;2.71;80.96
72414;BME280;60995;52.154;4.498;2023-02-28T08:03:12;103212.41;;;2.68;81.78
72414;BME280;60995;52.154;4.498;2023-02-28T08:05:28;103218.31;;;2.87;81.97
72414;BME280;60995;52.154;4.498;2023-02-28T08:07:45;103218.19;;;2.93;82.42
72414;BME280;60995;52.154;4.498;2023-02-28T08:10:03;103219.97;;;2.94;82.34
72414;BME280;60995;52.154;4.498;2023-02-28T08:12:21;103228.09;;;2.91;84.02
72414;BME280;60995;52.154;4.498;2023-02-28T08:14:38;103238.56;;;2.55;82.93
72414;BME280;60995;52.154;4.498;2023-02-28T08:16:55;103236.72;;;2.57;83.58
72414;BME280;60995;52.154;4.498;2023-02-28T08:19:11;103232.66;;;2.33;83.55
72414;BME280;60995;52.154;4.498;2023-02-28T08:21:28;103231.47;;;2.51;83.73
72414;BME280;60995;52.154;4.498;2023-02-28T08:23:47;103239.34;;;2.60;83.25
72414;BME280;60995;52.154;4.498;2023-02-28T08:26:04;103235.63;;;2.69;82.57
72414;BME280;60995;52.154;4.498;2023-02-28T08:28:21;103229.03;;;2.87;82.59
72414;BME280;60995;52.154;4.498;2023-02-28T08:30:37;103243.00;;;2.56;82.14
72414;BME280;60995;52.154;4.498;2023-02-28T08:32:56;103235.94;;;2.52;82.45
72414;BME280;60995;52.154;4.498;2023-02-28T08:35:13;103232.19;;;2.60;83.17
72414;BME280;60995;52.154;4.498;2023-02-28T08:37:29;103240.16;;;2.65;82.35
72414;BME280;60995;52.154;4.498;2023-02-28T08:39:46;103231.16;;;2.69;82.28
72414;BME280;60995;52.154;4.498;2023-02-28T08:42:03;103228.44;;;2.71;82.87
72414;BME280;60995;52.154;4.498;2023-02-28T08:44:20;103225.41;;;2.91;82.62
72414;BME280;60995;52.154;4.498;2023-02-28T08:46:36;103227.03;;;2.98;82.87
72414;BME280;60995;52.154;4.498;2023-02-28T08:48:55;103230.31;;;3.16;82.63
72414;BME280;60995;52.154;4.498;2023-02-28T08:51:16;103225.16;;;3.03;82.51
72414;BME280;60995;52.154;4.498;2023-02-28T08:53:41;103216.00;;;3.13;81.65
72414;BME280;60995;52.154;4.498;2023-02-28T08:56:04;103226.44;;;3.29;80.97
72414;BME280;60995;52.154;4.498;2023-02-28T08:58:22;103229.44;;;3.56;81.31
72414;BME280;60995;52.154;4.498;2023-02-28T09:00:38;103223.50;;;3.41;80.54
72414;BME280;60995;52.154;4.498;2023-02-28T09:02:54;103227.81;;;3.48;79.95
72414;BME280;60995;52.154;4.498;2023-02-28T09:05:11;103212.88;;;3.77;80.20
72414;BME280;60995;52.154;4.498;2023-02-28T09:07:27;103209.22;;;3.80;80.03
72414;BME280;60995;52.154;4.498;2023-02-28T09:09:43;103215.41;;;4.23;79.04
72414;BME280;60995;52.154;4.498;2023-02-28T09:12:10;103217.13;;;4.25;77.76
72414;BME280;60995;52.154;4.498;2023-02-28T09:14:26;103211.78;;;4.24;78.43
72414;BME280;60995;52.154;4.498;2023-02-28T09:16:42;103209.94;;;4.26;77.77
72414;BME280;60995;52.154;4.498;2023-02-28T09:18:59;103205.47;;;4.61;77.89
72414;BME280;60995;52.154;4.498;2023-02-28T09:21:17;103209.06;;;4.60;76.56
72414;BME280;60995;52.154;4.498;2023-02-28T09:23:34;103213.25;;;4.72;76.66
72414;BME280;60995;52.154;4.498;2023-02-28T09:25:54;103217.63;;;4.76;76.59
72414;BME280;60995;52.154;4.498;2023-02-28T09:28:11;103211.09;;;4.85;76.29
72414;BME280;60995;52.154;4.498;2023-02-28T09:30:27;103211.97;;;4.87;75.80
72414;BME280;60995;52.154;4.498;2023-02-28T09:32:44;103205.78;;;5.14;75.56
72414;BME280;60995;52.154;4.498;2023-02-28T09:35:07;103209.41;;;5.13;74.85
72414;BME280;60995;52.154;4.498;2023-02-28T09:37:29;103213.25;;;5.36;74.70
72414;BME280;60995;52.154;4.498;2023-02-28T09:39:46;103200.81;;;5.62;73.46
72414;BME280;60995;52.154;4.498;2023-02-28T09:42:03;103223.53;;;5.53;71.78
72414;BME280;60995;52.154;4.498;2023-02-28T09:44:35;103229.72;;;5.55;72.43
72414;BME280;60995;52.154;4.498;2023-02-28T09:46:57;103223.22;;;5.01;73.52
72414;BME280;60995;52.154;4.498;2023-02-28T09:49:31;103221.41;;;5.33;72.81
72414;BME280;60995;52.154;4.498;2023-02-28T09:52:30;103218.78;;;5.61;72.63
72414;BME280;60995;52.154;4.498;2023-02-28T09:54:46;103226.63;;;5.69;70.91
72414;BME280;60995;52.154;4.498;2023-02-28T09:59:41;103218.94;;;5.57;69.81
72414;BME280;60995;52.154;4.498;2023-02-28T10:02:17;103221.31;;;5.96;70.03
72414;BME280;60995;52.154;4.498;2023-02-28T10:04:54;103213.38;;;6.48;65.75
72414;BME280;60995;52.154;4.498;2023-02-28T10:07:40;103217.78;;;6.51;65.25
72414;BME280;60995;52.154;4.498;2023-02-28T10:10:26;103226.06;;;5.58;66.26
72414;BME280;60995;52.154;4.498;2023-02-28T10:12:45;103223.66;;;5.78;64.69
72414;BME280;60995;52.154;4.498;2023-02-28T10:15:03;103226.56;;;5.72;64.92
72414;BME280;60995;52.154;4.498;2023-02-28T10:17:23;103233.34;;;5.24;66.77
72414;BME280;60995;52.154;4.498;2023-02-28T10:19:56;103221.63;;;5.87;66.10
72414;BME280;60995;52.154;4.498;2023-02-28T10:24:45;103236.19;;;5.79;66.31
72414;BME280;60995;52.154;4.498;2023-02-28T10:27:16;103226.53;;;6.02;66.30
72414;BME280;60995;52.154;4.498;2023-02-28T10:29:39;103223.31;;;6.19;65.20
72414;BME280;60995;52.154;4.498;2023-02-28T10:32:01;103231.41;;;6.19;68.66
72414;BME280;60995;52.154;4.498;2023-02-28T10:34:19;103226.44;;;6.05;66.46
72414;BME280;60995;52.154;4.498;2023-02-28T10:36:35;103225.53;;;5.75;64.60
72414;BME280;60995;52.154;4.498;2023-02-28T10:38:52;103222.84;;;6.33;64.34
72414;BME280;60995;52.154;4.498;2023-02-28T10:41:09;103239.69;;;6.13;63.12
72414;BME280;60995;52.154;4.498;2023-02-28T10:43:28;103242.78;;;5.69;64.13
72414;BME280;60995;52.154;4.498;2023-02-28T10:50:51;103238.72;;;5.56;62.04
72414;BME280;60995;52.154;4.498;2023-02-28T10:55:41;103233.19;;;5.29;60.20
72414;BME280;60995;52.154;4.498;2023-02-28T10:57:58;103232.25;;;4.64;60.66
72414;BME280;60995;52.154;4.498;2023-02-28T11:00:21;103231.28;;;5.01;61.83
72414;BME280;60995;52.154;4.498;2023-02-28T11:02:41;103225.38;;;5.20;59.05
72414;BME280;60995;52.154;4.498;2023-02-28T11:05:00;103226.31;;;4.86;60.21
72414;BME280;60995;52.154;4.498;2023-02-28T11:07:22;103230.44;;;5.62;59.37
72414;BME280;60995;52.154;4.498;2023-02-28T11:09:41;103223.34;;;6.18;58.87
72414;BME280;60995;52.154;4.498;2023-02-28T11:11:59;103215.91;;;6.26;57.39
72414;BME280;60995;52.154;4.498;2023-02-28T11:14:27;103206.75;;;7.07;56.63
72414;BME280;60995;52.154;4.498;2023-02-28T11:16:47;103206.19;;;8.37;55.07
72414;BME280;60995;52.154;4.498;2023-02-28T11:19:17;103208.72;;;9.05;50.73
72414;BME280;60995;52.154;4.498;2023-02-28T11:21:38;103200.84;;;9.38;49.51
72414;BME280;60995;52.154;4.498;2023-02-28T11:24:05;103191.69;;;9.22;49.87
72414;BME280;60995;52.154;4.498;2023-02-28T11:26:46;103192.97;;;9.13;48.20
72414;BME280;60995;52.154;4.498;2023-02-28T11:31:35;103178.38;;;10.65;42.64
72414;BME280;60995;52.154;4.498;2023-02-28T11:33:54;103183.50;;;10.54;43.00
72414;BME280;60995;52.154;4.498;2023-02-28T11:36:14;103194.34;;;9.62;43.14
72414;BME280;60995;52.154;4.498;2023-02-28T11:38:47;103192.50;;;9.43;44.42
72414;BME280;60995;52.154;4.498;2023-02-28T11:47:17;103178.16;;;9.79;45.07
72414;BME280;60995;52.154;4.498;2023-02-28T11:52:40;103177.66;;;9.52;42.22
72414;BME280;60995;52.154;4.498;2023-02-28T11:58:24;103178.00;;;9.25;40.79
72414;BME280;60995;52.154;4.498;2023-02-28T12:03:38;103170.78;;;9.05;43.52
72414;BME280;60995;52.154;4.498;2023-02-28T12:06:13;103165.75;;;8.76;43.90
72414;BME280;60995;52.154;4.498;2023-02-28T12:17:56;103155.34;;;8.45;42.32
72414;BME280;60995;52.154;4.498;2023-02-28T12:20:56;103146.91;;;8.94;43.07
72414;BME280;60995;52.154;4.498;2023-02-28T12:26:02;103144.53;;;10.55;38.36
72414;BME280;60995;52.154;4.498;2023-02-28T12:28:49;103151.34;;;9.16;40.63
72414;BME280;60995;52.154;4.498;2023-02-28T12:31:23;103139.22;;;8.64;41.96
72414;BME280;60995;52.154;4.498;2023-02-28T12:36:22;103135.19;;;7.89;42.39
72414;BME280;60995;52.154;4.498;2023-02-28T12:38:45;103144.88;;;7.72;42.20
72414;BME280;60995;52.154;4.498;2023-02-28T12:43:52;103130.03;;;7.83;41.91
72414;BME280;60995;52.154;4.498;2023-02-28T12:46:24;103128.50;;;7.98;43.34
72414;BME280;60995;52.154;4.498;2023-02-28T12:49:04;103140.72;;;7.86;41.08
72414;BME280;60995;52.154;4.498;2023-02-28T12:51:44;103133.16;;;7.50;42.48
72414;BME280;60995;52.154;4.498;2023-02-28T12:57:26;103136.56;;;7.07;43.94
72414;BME280;60995;52.154;4.498;2023-02-28T13:00:13;103136.56;;;7.31;42.46
72414;BME280;60995;52.154;4.498;2023-02-28T13:02:59;103126.53;;;7.35;42.14
72414;BME280;60995;52.154;4.498;2023-02-28T13:11:02;103116.38;;;7.18;43.12
72414;BME280;60995;52.154;4.498;2023-02-28T13:13:21;103119.44;;;6.85;43.31
72414;BME280;60995;52.154;4.498;2023-02-28T13:15:40;103117.88;;;6.77;43.47
72414;BME280;60995;52.154;4.498;2023-02-28T13:18:01;103100.16;;;7.41;45.26
72414;BME280;60995;52.154;4.498;2023-02-28T13:20:26;103105.50;;;7.43;43.45
72414;BME280;60995;52.154;4.498;2023-02-28T13:22:51;103105.50;;;7.65;42.10
72414;BME280;60995;52.154;4.498;2023-02-28T13:27:50;103099.47;;;7.81;43.15
72414;BME280;60995;52.154;4.498;2023-02-28T13:35:48;103092.75;;;7.47;42.48
72414;BME280;60995;52.154;4.498;2023-02-28T13:38:31;103095.25;;;7.29;43.74
72414;BME280;60995;52.154;4.498;2023-02-28T13:40:50;103088.47;;;7.19;43.22
72414;BME280;60995;52.154;4.498;2023-02-28T13:43:08;103090.16;;;7.21;43.04
72414;BME280;60995;52.154;4.498;2023-02-28T13:45:29;103090.06;;;7.47;43.36
72414;BME280;60995;52.154;4.498;2023-02-28T13:47:59;103096.47;;;7.66;42.98
72414;BME280;60995;52.154;4.498;2023-02-28T13:52:51;103089.88;;;7.51;43.45
72414;BME280;60995;52.154;4.498;2023-02-28T14:03:58;103071.31;;;7.20;44.61
72414;BME280;60995;52.154;4.498;2023-02-28T14:06:29;103072.91;;;7.48;46.60
72414;BME280;60995;52.154;4.498;2023-02-28T14:08:57;103073.31;;;7.15;45.65
72414;BME280;60995;52.154;4.498;2023-02-28T14:11:46;103069.75;;;7.36;44.38